sensor_id;sensor_type;location;lat;lon;timestamp;P1;durP1;ratioP1;P2;durP2;ratioP2
19205;SDS011;59358;52.134;5.596;2023-06-26T00:01:30;16.27;;;13.35;;
19205;SDS011;59358;52.134;5.596;2023-06-26T00:03:57;12.68;;;11.40;;
19205;SDS011;59358;52.134;5.596;2023-06-26T00:06:24;18.45;;;13.85;;
19205;SDS011;59358;52.134;5.596;2023-06-26T00:08:55;17.00;;;12.82;;
19205;SDS011;59358;52.134;5.596;2023-06-26T00:11:23;14.95;;;13.23;;
19205;SDS011;59358;52.134;5.596;2023-06-26T00:13:52;15.45;;;13.25;;
19205;SDS011;59358;52.134;5.596;2023-06-26T00:16:19;20.23;;;14.80;;
19205;SDS011;59358;52.134;5.596;2023-06-26T00:18:46;15.48;;;13.93;;
19205;SDS011;59358;52.134;5.596;2023-06-26T00:21:12;17.00;;;13.93;;
19205;SDS011;59358;52.134;5.596;2023-06-26T00:23:39;15.30;;;13.50;;
19205;SDS011;59358;52.134;5.596;2023-06-26T00:26:08;13.82;;;12.52;;
19205;SDS011;59358;52.134;5.596;2023-06-26T00:28:35;16.40;;;14.48;;
19205;SDS011;59358;52.134;5.596;2023-06-26T00:31:02;16.20;;;14.52;;
19205;SDS011;59358;52.134;5.596;2023-06-26T00:33:29;17.48;;;14.73;;
19205;SDS011;59358;52.134;5.596;2023-06-26T00:35:55;17.38;;;15.18;;
19205;SDS011;59358;52.134;5.596;2023-06-26T00:38:22;16.55;;;14.85;;
19205;SDS011;59358;52.134;5.596;2023-06-26T00:40:49;16.35;;;14.02;;
19205;SDS011;59358;52.134;5.596;2023-06-26T00:43:17;16.13;;;14.10;;
19205;SDS011;59358;52.134;5.596;2023-06-26T00:45:44;17.08;;;15.27;;
19205;SDS011;59358;52.134;5.596;2023-06-26T00:48:11;16.75;;;15.05;;
19205;SDS011;59358;52.134;5.596;2023-06-26T00:50:38;17.05;;;15.25;;
19205;SDS011;59358;52.134;5.596;2023-06-26T00:53:06;17.38;;;15.07;;
19205;SDS011;59358;52.134;5.596;2023-06-26T00:55:34;17.50;;;15.35;;
19205;SDS011;59358;52.134;5.596;2023-06-26T00:58:02;18.08;;;15.05;;
19205;SDS011;59358;52.134;5.596;2023-06-26T01:00:30;18.08;;;15.50;;
19205;SDS011;59358;52.134;5.596;2023-06-26T01:02:57;16.80;;;14.25;;
19205;SDS011;59358;52.134;5.596;2023-06-26T01:05:24;18.25;;;14.20;;
19205;SDS011;59358;52.134;5.596;2023-06-26T01:07:51;15.15;;;13.50;;
19205;SDS011;59358;52.134;5.596;2023-06-26T01:10:19;16.65;;;14.82;;
19205;SDS011;59358;52.134;5.596;2023-06-26T01:12:46;16.45;;;14.75;;
19205;SDS011;59358;52.134;5.596;2023-06-26T01:15:12;16.58;;;14.80;;
19205;SDS011;59358;52.134;5.596;2023-06-26T01:17:41;15.68;;;14.07;;
19205;SDS011;59358;52.134;5.596;2023-06-26T01:20:10;16.58;;;14.30;;
19205;SDS011;59358;52.134;5.596;2023-06-26T01:22:38;17.27;;;15.15;;
19205;SDS011;59358;52.134;5.596;2023-06-26T01:25:12;18.17;;;15.98;;
19205;SDS011;59358;52.134;5.596;2023-06-26T01:27:48;24.23;;;17.02;;
19205;SDS011;59358;52.134;5.596;2023-06-26T01:30:16;19.83;;;15.57;;
19205;SDS011;59358;52.134;5.596;2023-06-26T01:32:44;17.17;;;15.38;;
19205;SDS011;59358;52.134;5.596;2023-06-26T01:35:11;18.58;;;15.10;;
19205;SDS011;59358;52.134;5.596;2023-06-26T01:37:39;15.77;;;14.15;;
19205;SDS011;59358;52.134;5.596;2023-06-26T01:40:06;13.93;;;12.27;;
19205;SDS011;59358;52.134;5.596;2023-06-26T01:42:34;14.05;;;12.13;;
19205;SDS011;59358;52.134;5.596;2023-06-26T01:45:04;13.30;;;11.07;;
19205;SDS011;59358;52.134;5.596;2023-06-26T01:47:36;12.93;;;10.95;;
19205;SDS011;59358;52.134;5.596;2023-06-26T01:50:09;13.25;;;11.25;;
19205;SDS011;59358;52.134;5.596;2023-06-26T01:52:39;14.15;;;10.82;;
19205;SDS011;59358;52.134;5.596;2023-06-26T01:55:11;12.70;;;10.40;;
19205;SDS011;59358;52.134;5.596;2023-06-26T01:57:43;12.55;;;10.70;;
19205;SDS011;59358;52.134;5.596;2023-06-26T02:00:14;11.48;;;10.20;;
19205;SDS011;59358;52.134;5.596;2023-06-26T02:02:44;14.57;;;9.45;;
19205;SDS011;59358;52.134;5.596;2023-06-26T02:05:11;13.60;;;10.82;;
19205;SDS011;59358;52.134;5.596;2023-06-26T02:07:38;11.27;;;9.45;;
19205;SDS011;59358;52.134;5.596;2023-06-26T02:10:05;11.18;;;9.57;;
19205;SDS011;59358;52.134;5.596;2023-06-26T02:12:33;13.48;;;9.57;;
19205;SDS011;59358;52.134;5.596;2023-06-26T02:15:00;10.23;;;9.23;;
19205;SDS011;59358;52.134;5.596;2023-06-26T02:17:28;11.20;;;9.38;;
19205;SDS011;59358;52.134;5.596;2023-06-26T02:19:55;9.63;;;8.40;;
19205;SDS011;59358;52.134;5.596;2023-06-26T02:22:22;10.63;;;9.35;;
19205;SDS011;59358;52.134;5.596;2023-06-26T02:24:49;11.23;;;9.05;;
19205;SDS011;59358;52.134;5.596;2023-06-26T02:27:16;12.63;;;8.60;;
19205;SDS011;59358;52.134;5.596;2023-06-26T02:29:43;12.77;;;8.25;;
19205;SDS011;59358;52.134;5.596;2023-06-26T02:32:10;9.23;;;7.80;;
19205;SDS011;59358;52.134;5.596;2023-06-26T02:34:38;13.55;;;8.15;;
19205;SDS011;59358;52.134;5.596;2023-06-26T02:37:04;10.82;;;7.97;;
19205;SDS011;59358;52.134;5.596;2023-06-26T02:39:32;8.82;;;6.80;;
19205;SDS011;59358;52.134;5.596;2023-06-26T02:41:59;9.45;;;7.35;;
19205;SDS011;59358;52.134;5.596;2023-06-26T02:44:26;10.82;;;7.15;;
19205;SDS011;59358;52.134;5.596;2023-06-26T02:46:53;13.35;;;6.97;;
19205;SDS011;59358;52.134;5.596;2023-06-26T02:49:20;11.60;;;7.13;;
19205;SDS011;59358;52.134;5.596;2023-06-26T02:51:48;12.23;;;6.55;;
19205;SDS011;59358;52.134;5.596;2023-06-26T02:54:15;12.27;;;6.82;;
19205;SDS011;59358;52.134;5.596;2023-06-26T02:56:42;10.43;;;6.80;;
19205;SDS011;59358;52.134;5.596;2023-06-26T02:59:08;16.50;;;7.68;;
19205;SDS011;59358;52.134;5.596;2023-06-26T03:01:35;9.75;;;6.75;;
19205;SDS011;59358;52.134;5.596;2023-06-26T03:04:03;11.95;;;6.68;;
19205;SDS011;59358;52.134;5.596;2023-06-26T03:06:30;10.75;;;6.55;;
19205;SDS011;59358;52.134;5.596;2023-06-26T03:08:58;11.30;;;6.22;;
19205;SDS011;59358;52.134;5.596;2023-06-26T03:11:26;11.43;;;6.75;;
19205;SDS011;59358;52.134;5.596;2023-06-26T03:13:52;15.45;;;7.20;;
19205;SDS011;59358;52.134;5.596;2023-06-26T03:16:19;10.85;;;7.18;;
19205;SDS011;59358;52.134;5.596;2023-06-26T03:18:46;13.48;;;6.55;;
19205;SDS011;59358;52.134;5.596;2023-06-26T03:21:13;12.75;;;6.63;;
19205;SDS011;59358;52.134;5.596;2023-06-26T03:23:40;18.15;;;6.80;;
19205;SDS011;59358;52.134;5.596;2023-06-26T03:26:09;14.38;;;6.40;;
19205;SDS011;59358;52.134;5.596;2023-06-26T03:28:36;12.60;;;6.88;;
19205;SDS011;59358;52.134;5.596;2023-06-26T03:31:02;15.10;;;7.55;;
19205;SDS011;59358;52.134;5.596;2023-06-26T03:33:29;17.25;;;7.10;;
19205;SDS011;59358;52.134;5.596;2023-06-26T03:35:56;16.63;;;6.72;;
19205;SDS011;59358;52.134;5.596;2023-06-26T03:38:24;14.15;;;6.82;;
19205;SDS011;59358;52.134;5.596;2023-06-26T03:40:51;16.63;;;7.00;;
19205;SDS011;59358;52.134;5.596;2023-06-26T03:43:19;13.38;;;6.93;;
19205;SDS011;59358;52.134;5.596;2023-06-26T03:45:46;14.90;;;6.45;;
19205;SDS011;59358;52.134;5.596;2023-06-26T03:48:13;14.52;;;7.50;;
19205;SDS011;59358;52.134;5.596;2023-06-26T03:50:39;18.77;;;6.75;;
19205;SDS011;59358;52.134;5.596;2023-06-26T03:53:06;17.83;;;7.15;;
19205;SDS011;59358;52.134;5.596;2023-06-26T03:55:33;19.00;;;7.03;;
19205;SDS011;59358;52.134;5.596;2023-06-26T03:58:00;12.90;;;6.75;;
19205;SDS011;59358;52.134;5.596;2023-06-26T04:00:28;15.65;;;7.25;;
19205;SDS011;59358;52.134;5.596;2023-06-26T04:02:55;14.65;;;6.60;;
19205;SDS011;59358;52.134;5.596;2023-06-26T04:05:22;15.40;;;6.88;;
19205;SDS011;59358;52.134;5.596;2023-06-26T04:07:50;14.25;;;6.78;;
19205;SDS011;59358;52.134;5.596;2023-06-26T04:10:17;14.32;;;7.03;;
19205;SDS011;59358;52.134;5.596;2023-06-26T04:12:45;17.95;;;6.85;;
19205;SDS011;59358;52.134;5.596;2023-06-26T04:15:14;18.88;;;7.03;;
19205;SDS011;59358;52.134;5.596;2023-06-26T04:17:42;13.75;;;6.82;;
19205;SDS011;59358;52.134;5.596;2023-06-26T04:20:09;13.43;;;6.88;;
19205;SDS011;59358;52.134;5.596;2023-06-26T04:22:36;14.65;;;7.45;;
19205;SDS011;59358;52.134;5.596;2023-06-26T04:25:03;15.77;;;6.75;;
19205;SDS011;59358;52.134;5.596;2023-06-26T04:27:31;11.52;;;6.28;;
19205;SDS011;59358;52.134;5.596;2023-06-26T04:29:57;14.65;;;7.10;;
19205;SDS011;59358;52.134;5.596;2023-06-26T04:32:24;14.00;;;7.03;;
19205;SDS011;59358;52.134;5.596;2023-06-26T04:34:52;18.40;;;6.35;;
19205;SDS011;59358;52.134;5.596;2023-06-26T04:37:19;17.30;;;6.60;;
19205;SDS011;59358;52.134;5.596;2023-06-26T04:39:46;16.02;;;6.72;;
19205;SDS011;59358;52.134;5.596;2023-06-26T04:42:13;18.17;;;7.40;;
19205;SDS011;59358;52.134;5.596;2023-06-26T04:44:40;15.40;;;6.72;;
19205;SDS011;59358;52.134;5.596;2023-06-26T04:47:07;16.65;;;7.13;;
19205;SDS011;59358;52.134;5.596;2023-06-26T04:49:34;19.33;;;6.82;;
19205;SDS011;59358;52.134;5.596;2023-06-26T04:52:02;14.10;;;6.15;;
19205;SDS011;59358;52.134;5.596;2023-06-26T04:54:29;12.77;;;6.43;;
19205;SDS011;59358;52.134;5.596;2023-06-26T04:56:56;17.83;;;7.45;;
19205;SDS011;59358;52.134;5.596;2023-06-26T04:59:24;18.85;;;6.60;;
19205;SDS011;59358;52.134;5.596;2023-06-26T05:01:51;15.57;;;6.00;;
19205;SDS011;59358;52.134;5.596;2023-06-26T05:04:18;17.88;;;6.85;;
19205;SDS011;59358;52.134;5.596;2023-06-26T05:06:45;16.23;;;6.85;;
19205;SDS011;59358;52.134;5.596;2023-06-26T05:09:13;16.15;;;6.15;;
19205;SDS011;59358;52.134;5.596;2023-06-26T05:11:40;13.65;;;6.60;;
19205;SDS011;59358;52.134;5.596;2023-06-26T05:14:07;14.23;;;6.28;;
19205;SDS011;59358;52.134;5.596;2023-06-26T05:16:34;13.25;;;6.35;;
19205;SDS011;59358;52.134;5.596;2023-06-26T05:19:01;16.77;;;7.32;;
19205;SDS011;59358;52.134;5.596;2023-06-26T05:21:28;13.90;;;6.38;;
19205;SDS011;59358;52.134;5.596;2023-06-26T05:23:56;12.18;;;5.57;;
19205;SDS011;59358;52.134;5.596;2023-06-26T05:26:26;15.52;;;6.40;;
19205;SDS011;59358;52.134;5.596;2023-06-26T05:28:54;10.23;;;5.18;;
19205;SDS011;59358;52.134;5.596;2023-06-26T05:31:21;10.82;;;5.40;;
19205;SDS011;59358;52.134;5.596;2023-06-26T05:33:48;15.13;;;5.57;;
19205;SDS011;59358;52.134;5.596;2023-06-26T05:36:16;14.20;;;5.93;;
19205;SDS011;59358;52.134;5.596;2023-06-26T05:38:46;8.90;;;5.47;;
19205;SDS011;59358;52.134;5.596;2023-06-26T05:41:15;10.95;;;5.38;;
19205;SDS011;59358;52.134;5.596;2023-06-26T05:43:43;13.57;;;5.68;;
19205;SDS011;59358;52.134;5.596;2023-06-26T05:46:10;9.90;;;4.95;;
19205;SDS011;59358;52.134;5.596;2023-06-26T05:48:37;12.93;;;5.30;;
19205;SDS011;59358;52.134;5.596;2023-06-26T05:51:04;8.23;;;4.47;;
19205;SDS011;59358;52.134;5.596;2023-06-26T05:53:32;13.48;;;5.30;;
19205;SDS011;59358;52.134;5.596;2023-06-26T05:55:59;10.73;;;4.55;;
19205;SDS011;59358;52.134;5.596;2023-06-26T05:58:26;8.55;;;5.13;;
19205;SDS011;59358;52.134;5.596;2023-06-26T06:00:55;11.20;;;5.32;;
19205;SDS011;59358;52.134;5.596;2023-06-26T06:03:22;8.30;;;4.45;;
19205;SDS011;59358;52.134;5.596;2023-06-26T06:05:49;8.50;;;4.53;;
19205;SDS011;59358;52.134;5.596;2023-06-26T06:08:16;12.25;;;4.30;;
19205;SDS011;59358;52.134;5.596;2023-06-26T06:10:43;10.05;;;3.80;;
19205;SDS011;59358;52.134;5.596;2023-06-26T06:13:10;8.93;;;4.15;;
19205;SDS011;59358;52.134;5.596;2023-06-26T06:15:37;5.65;;;3.40;;
19205;SDS011;59358;52.134;5.596;2023-06-26T06:18:05;6.97;;;3.95;;
19205;SDS011;59358;52.134;5.596;2023-06-26T06:20:32;5.85;;;3.72;;
19205;SDS011;59358;52.134;5.596;2023-06-26T06:22:59;6.65;;;3.83;;
19205;SDS011;59358;52.134;5.596;2023-06-26T06:25:26;5.97;;;3.10;;
19205;SDS011;59358;52.134;5.596;2023-06-26T06:27:53;8.30;;;3.55;;
19205;SDS011;59358;52.134;5.596;2023-06-26T06:30:20;9.23;;;3.30;;
19205;SDS011;59358;52.134;5.596;2023-06-26T06:32:47;6.18;;;3.13;;
19205;SDS011;59358;52.134;5.596;2023-06-26T06:35:18;6.35;;;3.40;;
19205;SDS011;59358;52.134;5.596;2023-06-26T06:37:45;5.40;;;3.47;;
19205;SDS011;59358;52.134;5.596;2023-06-26T06:40:12;8.90;;;3.50;;
19205;SDS011;59358;52.134;5.596;2023-06-26T06:42:39;7.97;;;3.00;;
19205;SDS011;59358;52.134;5.596;2023-06-26T06:45:06;3.95;;;2.90;;
19205;SDS011;59358;52.134;5.596;2023-06-26T06:47:34;6.13;;;2.97;;
19205;SDS011;59358;52.134;5.596;2023-06-26T06:50:01;4.45;;;2.58;;
19205;SDS011;59358;52.134;5.596;2023-06-26T06:52:35;6.57;;;3.20;;
19205;SDS011;59358;52.134;5.596;2023-06-26T06:55:02;6.18;;;2.95;;
19205;SDS011;59358;52.134;5.596;2023-06-26T06:57:32;6.72;;;3.40;;
19205;SDS011;59358;52.134;5.596;2023-06-26T07:00:01;5.90;;;3.42;;
19205;SDS011;59358;52.134;5.596;2023-06-26T07:02:29;7.82;;;3.10;;
19205;SDS011;59358;52.134;5.596;2023-06-26T07:04:56;6.18;;;3.33;;
19205;SDS011;59358;52.134;5.596;2023-06-26T07:07:23;6.93;;;3.67;;
19205;SDS011;59358;52.134;5.596;2023-06-26T07:09:55;7.90;;;3.50;;
19205;SDS011;59358;52.134;5.596;2023-06-26T07:12:23;6.22;;;3.33;;
19205;SDS011;59358;52.134;5.596;2023-06-26T07:14:50;5.45;;;3.30;;
19205;SDS011;59358;52.134;5.596;2023-06-26T07:17:18;5.45;;;3.28;;
19205;SDS011;59358;52.134;5.596;2023-06-26T07:19:46;6.82;;;3.22;;
19205;SDS011;59358;52.134;5.596;2023-06-26T07:22:13;7.03;;;3.65;;
19205;SDS011;59358;52.134;5.596;2023-06-26T07:24:39;7.72;;;3.83;;
19205;SDS011;59358;52.134;5.596;2023-06-26T07:27:08;6.88;;;2.75;;
19205;SDS011;59358;52.134;5.596;2023-06-26T07:29:35;5.13;;;3.10;;
19205;SDS011;59358;52.134;5.596;2023-06-26T07:32:01;6.38;;;3.10;;
19205;SDS011;59358;52.134;5.596;2023-06-26T07:34:28;7.45;;;3.63;;
19205;SDS011;59358;52.134;5.596;2023-06-26T07:36:55;4.43;;;3.25;;
19205;SDS011;59358;52.134;5.596;2023-06-26T07:39:22;7.20;;;3.15;;
19205;SDS011;59358;52.134;5.596;2023-06-26T07:41:49;5.50;;;3.72;;
19205;SDS011;59358;52.134;5.596;2023-06-26T07:44:17;7.57;;;3.83;;
19205;SDS011;59358;52.134;5.596;2023-06-26T07:46:44;6.95;;;3.35;;
19205;SDS011;59358;52.134;5.596;2023-06-26T07:49:11;5.05;;;3.30;;
19205;SDS011;59358;52.134;5.596;2023-06-26T07:51:38;5.95;;;3.22;;
19205;SDS011;59358;52.134;5.596;2023-06-26T07:54:06;7.03;;;3.47;;
19205;SDS011;59358;52.134;5.596;2023-06-26T07:56:34;8.20;;;3.95;;
19205;SDS011;59358;52.134;5.596;2023-06-26T07:59:19;7.57;;;4.07;;
19205;SDS011;59358;52.134;5.596;2023-06-26T08:01:47;7.22;;;4.10;;
19205;SDS011;59358;52.134;5.596;2023-06-26T08:04:14;8.52;;;3.92;;
19205;SDS011;59358;52.134;5.596;2023-06-26T08:06:40;6.72;;;3.85;;
19205;SDS011;59358;52.134;5.596;2023-06-26T08:09:07;8.43;;;3.60;;
19205;SDS011;59358;52.134;5.596;2023-06-26T08:11:34;7.57;;;3.67;;
19205;SDS011;59358;52.134;5.596;2023-06-26T08:14:01;7.25;;;3.67;;
19205;SDS011;59358;52.134;5.596;2023-06-26T08:16:29;9.50;;;3.42;;
19205;SDS011;59358;52.134;5.596;2023-06-26T08:18:56;5.13;;;3.05;;
19205;SDS011;59358;52.134;5.596;2023-06-26T08:21:23;7.85;;;3.78;;
19205;SDS011;59358;52.134;5.596;2023-06-26T08:23:50;5.72;;;3.83;;
19205;SDS011;59358;52.134;5.596;2023-06-26T08:26:17;5.03;;;3.28;;
19205;SDS011;59358;52.134;5.596;2023-06-26T08:28:44;8.88;;;4.22;;
19205;SDS011;59358;52.134;5.596;2023-06-26T08:31:11;9.80;;;4.10;;
19205;SDS011;59358;52.134;5.596;2023-06-26T08:33:39;6.72;;;4.00;;
19205;SDS011;59358;52.134;5.596;2023-06-26T08:36:06;7.43;;;3.60;;
19205;SDS011;59358;52.134;5.596;2023-06-26T08:38:33;5.05;;;3.58;;
19205;SDS011;59358;52.134;5.596;2023-06-26T08:41:00;4.35;;;2.78;;
19205;SDS011;59358;52.134;5.596;2023-06-26T08:43:27;5.63;;;2.60;;
19205;SDS011;59358;52.134;5.596;2023-06-26T08:45:54;9.15;;;2.90;;
19205;SDS011;59358;52.134;5.596;2023-06-26T08:48:21;5.68;;;3.25;;
19205;SDS011;59358;52.134;5.596;2023-06-26T08:50:49;4.00;;;2.78;;
19205;SDS011;59358;52.134;5.596;2023-06-26T08:53:20;5.07;;;2.40;;
19205;SDS011;59358;52.134;5.596;2023-06-26T08:55:54;3.97;;;2.58;;
19205;SDS011;59358;52.134;5.596;2023-06-26T08:58:24;9.80;;;2.47;;
19205;SDS011;59358;52.134;5.596;2023-06-26T09:00:51;3.97;;;2.30;;
19205;SDS011;59358;52.134;5.596;2023-06-26T09:03:18;5.07;;;2.22;;
19205;SDS011;59358;52.134;5.596;2023-06-26T09:05:46;3.72;;;1.75;;
19205;SDS011;59358;52.134;5.596;2023-06-26T09:08:14;8.45;;;2.38;;
19205;SDS011;59358;52.134;5.596;2023-06-26T09:10:41;5.20;;;1.63;;
19205;SDS011;59358;52.134;5.596;2023-06-26T09:13:08;6.53;;;2.00;;
19205;SDS011;59358;52.134;5.596;2023-06-26T09:15:38;7.40;;;2.33;;
19205;SDS011;59358;52.134;5.596;2023-06-26T09:18:05;5.25;;;1.92;;
19205;SDS011;59358;52.134;5.596;2023-06-26T09:20:32;4.20;;;1.90;;
19205;SDS011;59358;52.134;5.596;2023-06-26T09:23:00;6.07;;;1.90;;
19205;SDS011;59358;52.134;5.596;2023-06-26T09:25:28;4.32;;;1.73;;
19205;SDS011;59358;52.134;5.596;2023-06-26T09:27:55;7.35;;;1.98;;
19205;SDS011;59358;52.134;5.596;2023-06-26T09:30:23;4.32;;;1.83;;
19205;SDS011;59358;52.134;5.596;2023-06-26T09:32:51;2.90;;;1.80;;
19205;SDS011;59358;52.134;5.596;2023-06-26T09:35:19;5.72;;;1.75;;
19205;SDS011;59358;52.134;5.596;2023-06-26T09:37:46;5.78;;;1.98;;
19205;SDS011;59358;52.134;5.596;2023-06-26T09:40:13;4.45;;;1.90;;
19205;SDS011;59358;52.134;5.596;2023-06-26T09:42:42;3.80;;;1.80;;
19205;SDS011;59358;52.134;5.596;2023-06-26T09:45:17;6.25;;;1.77;;
19205;SDS011;59358;52.134;5.596;2023-06-26T09:47:45;6.75;;;2.42;;
19205;SDS011;59358;52.134;5.596;2023-06-26T09:50:20;4.45;;;1.80;;
19205;SDS011;59358;52.134;5.596;2023-06-26T09:52:49;4.80;;;1.65;;
19205;SDS011;59358;52.134;5.596;2023-06-26T09:55:17;3.58;;;1.70;;
19205;SDS011;59358;52.134;5.596;2023-06-26T09:57:49;10.77;;;2.15;;
19205;SDS011;59358;52.134;5.596;2023-06-26T10:00:16;3.03;;;1.60;;
19205;SDS011;59358;52.134;5.596;2023-06-26T10:02:45;4.05;;;1.77;;
19205;SDS011;59358;52.134;5.596;2023-06-26T10:05:12;7.10;;;1.90;;
19205;SDS011;59358;52.134;5.596;2023-06-26T10:07:38;4.05;;;1.80;;
19205;SDS011;59358;52.134;5.596;2023-06-26T10:10:07;5.13;;;1.85;;
19205;SDS011;59358;52.134;5.596;2023-06-26T10:12:36;4.88;;;1.58;;
19205;SDS011;59358;52.134;5.596;2023-06-26T10:15:04;2.45;;;1.70;;
19205;SDS011;59358;52.134;5.596;2023-06-26T10:17:37;5.10;;;1.95;;
19205;SDS011;59358;52.134;5.596;2023-06-26T10:20:08;5.00;;;2.17;;
19205;SDS011;59358;52.134;5.596;2023-06-26T10:22:37;4.30;;;2.05;;
19205;SDS011;59358;52.134;5.596;2023-06-26T10:25:09;3.05;;;1.60;;
19205;SDS011;59358;52.134;5.596;2023-06-26T10:27:38;3.63;;;1.60;;
19205;SDS011;59358;52.134;5.596;2023-06-26T10:30:11;4.72;;;2.08;;
19205;SDS011;59358;52.134;5.596;2023-06-26T10:32:42;5.32;;;1.48;;
19205;SDS011;59358;52.134;5.596;2023-06-26T10:35:09;3.58;;;1.63;;
19205;SDS011;59358;52.134;5.596;2023-06-26T10:37:40;3.85;;;1.40;;
19205;SDS011;59358;52.134;5.596;2023-06-26T10:40:08;2.03;;;1.58;;
19205;SDS011;59358;52.134;5.596;2023-06-26T10:42:36;4.25;;;1.45;;
19205;SDS011;59358;52.134;5.596;2023-06-26T10:45:15;2.63;;;1.63;;
19205;SDS011;59358;52.134;5.596;2023-06-26T10:47:45;4.82;;;2.00;;
19205;SDS011;59358;52.134;5.596;2023-06-26T10:50:23;4.78;;;1.85;;
19205;SDS011;59358;52.134;5.596;2023-06-26T10:53:07;4.35;;;1.55;;
19205;SDS011;59358;52.134;5.596;2023-06-26T10:55:35;4.82;;;1.45;;
19205;SDS011;59358;52.134;5.596;2023-06-26T10:58:03;2.50;;;1.35;;
19205;SDS011;59358;52.134;5.596;2023-06-26T11:00:31;7.40;;;1.60;;
19205;SDS011;59358;52.134;5.596;2023-06-26T11:02:58;3.13;;;1.35;;
19205;SDS011;59358;52.134;5.596;2023-06-26T11:05:26;6.50;;;1.73;;
19205;SDS011;59358;52.134;5.596;2023-06-26T11:08:04;5.60;;;1.88;;
19205;SDS011;59358;52.134;5.596;2023-06-26T11:10:49;2.28;;;1.35;;
19205;SDS011;59358;52.134;5.596;2023-06-26T11:13:17;4.70;;;1.98;;
19205;SDS011;59358;52.134;5.596;2023-06-26T11:15:49;7.82;;;2.03;;
19205;SDS011;59358;52.134;5.596;2023-06-26T11:18:16;5.65;;;2.05;;
19205;SDS011;59358;52.134;5.596;2023-06-26T11:20:44;5.45;;;2.00;;
19205;SDS011;59358;52.134;5.596;2023-06-26T11:23:11;7.60;;;1.75;;
19205;SDS011;59358;52.134;5.596;2023-06-26T11:25:39;4.40;;;1.67;;
19205;SDS011;59358;52.134;5.596;2023-06-26T11:28:05;5.70;;;1.50;;
19205;SDS011;59358;52.134;5.596;2023-06-26T11:30:36;5.68;;;2.03;;
19205;SDS011;59358;52.134;5.596;2023-06-26T11:33:06;5.10;;;1.35;;
19205;SDS011;59358;52.134;5.596;2023-06-26T11:35:36;3.55;;;1.52;;
19205;SDS011;59358;52.134;5.596;2023-06-26T11:38:03;3.60;;;1.50;;
19205;SDS011;59358;52.134;5.596;2023-06-26T11:40:30;2.97;;;1.70;;
19205;SDS011;59358;52.134;5.596;2023-06-26T11:42:59;3.88;;;1.60;;
19205;SDS011;59358;52.134;5.596;2023-06-26T11:45:27;4.07;;;1.50;;
19205;SDS011;59358;52.134;5.596;2023-06-26T11:47:55;7.38;;;1.77;;
19205;SDS011;59358;52.134;5.596;2023-06-26T11:50:23;4.70;;;1.58;;
19205;SDS011;59358;52.134;5.596;2023-06-26T11:52:54;4.13;;;1.60;;
19205;SDS011;59358;52.134;5.596;2023-06-26T11:55:22;2.22;;;1.60;;
19205;SDS011;59358;52.134;5.596;2023-06-26T11:57:49;3.13;;;1.42;;
19205;SDS011;59358;52.134;5.596;2023-06-26T12:00:16;3.55;;;1.40;;
19205;SDS011;59358;52.134;5.596;2023-06-26T12:02:44;3.17;;;1.63;;
19205;SDS011;59358;52.134;5.596;2023-06-26T12:05:12;3.17;;;1.60;;
19205;SDS011;59358;52.134;5.596;2023-06-26T12:07:42;3.00;;;1.45;;
19205;SDS011;59358;52.134;5.596;2023-06-26T12:10:09;3.70;;;1.25;;
19205;SDS011;59358;52.134;5.596;2023-06-26T12:12:37;1.48;;;1.20;;
19205;SDS011;59358;52.134;5.596;2023-06-26T12:15:05;3.47;;;1.23;;
19205;SDS011;59358;52.134;5.596;2023-06-26T12:17:36;2.60;;;1.27;;
19205;SDS011;59358;52.134;5.596;2023-06-26T12:20:04;2.40;;;1.35;;
19205;SDS011;59358;52.134;5.596;2023-06-26T12:22:34;2.60;;;1.40;;
19205;SDS011;59358;52.134;5.596;2023-06-26T12:25:03;3.95;;;1.30;;
19205;SDS011;59358;52.134;5.596;2023-06-26T12:27:33;10.48;;;1.77;;
19205;SDS011;59358;52.134;5.596;2023-06-26T12:30:02;4.28;;;1.63;;
19205;SDS011;59358;52.134;5.596;2023-06-26T12:32:30;3.50;;;1.10;;
19205;SDS011;59358;52.134;5.596;2023-06-26T12:34:57;1.85;;;1.10;;
19205;SDS011;59358;52.134;5.596;2023-06-26T12:37:24;1.95;;;1.05;;
19205;SDS011;59358;52.134;5.596;2023-06-26T12:39:51;1.70;;;1.50;;
19205;SDS011;59358;52.134;5.596;2023-06-26T12:42:21;2.97;;;1.10;;
19205;SDS011;59358;52.134;5.596;2023-06-26T12:44:49;4.35;;;1.10;;
19205;SDS011;59358;52.134;5.596;2023-06-26T12:47:17;4.00;;;1.40;;
19205;SDS011;59358;52.134;5.596;2023-06-26T12:49:50;6.97;;;1.17;;
19205;SDS011;59358;52.134;5.596;2023-06-26T12:52:17;6.10;;;1.20;;
19205;SDS011;59358;52.134;5.596;2023-06-26T12:54:44;2.55;;;1.20;;
19205;SDS011;59358;52.134;5.596;2023-06-26T12:57:12;5.50;;;1.55;;
19205;SDS011;59358;52.134;5.596;2023-06-26T12:59:41;1.70;;;1.00;;
19205;SDS011;59358;52.134;5.596;2023-06-26T13:02:09;6.28;;;1.52;;
19205;SDS011;59358;52.134;5.596;2023-06-26T13:04:37;2.42;;;1.63;;
19205;SDS011;59358;52.134;5.596;2023-06-26T13:07:05;2.17;;;1.23;;
19205;SDS011;59358;52.134;5.596;2023-06-26T13:09:32;2.63;;;1.38;;
19205;SDS011;59358;52.134;5.596;2023-06-26T13:12:00;4.88;;;1.10;;
19205;SDS011;59358;52.134;5.596;2023-06-26T13:14:28;2.72;;;1.10;;
19205;SDS011;59358;52.134;5.596;2023-06-26T13:16:56;2.47;;;1.00;;
19205;SDS011;59358;52.134;5.596;2023-06-26T13:19:23;2.83;;;1.17;;
19205;SDS011;59358;52.134;5.596;2023-06-26T13:21:50;2.58;;;0.88;;
19205;SDS011;59358;52.134;5.596;2023-06-26T13:24:18;1.30;;;1.20;;
19205;SDS011;59358;52.134;5.596;2023-06-26T13:26:45;3.05;;;1.20;;
19205;SDS011;59358;52.134;5.596;2023-06-26T13:29:12;2.22;;;1.45;;
19205;SDS011;59358;52.134;5.596;2023-06-26T13:31:41;4.68;;;1.33;;
19205;SDS011;59358;52.134;5.596;2023-06-26T13:34:09;2.60;;;1.25;;
19205;SDS011;59358;52.134;5.596;2023-06-26T13:36:47;1.98;;;1.20;;
19205;SDS011;59358;52.134;5.596;2023-06-26T13:39:14;2.97;;;1.10;;
19205;SDS011;59358;52.134;5.596;2023-06-26T13:41:40;2.75;;;1.10;;
19205;SDS011;59358;52.134;5.596;2023-06-26T13:44:07;2.85;;;1.13;;
19205;SDS011;59358;52.134;5.596;2023-06-26T13:46:34;6.40;;;1.30;;
19205;SDS011;59358;52.134;5.596;2023-06-26T13:49:01;5.10;;;1.02;;
19205;SDS011;59358;52.134;5.596;2023-06-26T13:51:29;2.08;;;1.30;;
19205;SDS011;59358;52.134;5.596;2023-06-26T13:53:56;2.65;;;1.00;;
19205;SDS011;59358;52.134;5.596;2023-06-26T13:56:25;2.75;;;1.20;;
19205;SDS011;59358;52.134;5.596;2023-06-26T13:58:53;2.78;;;1.45;;
19205;SDS011;59358;52.134;5.596;2023-06-26T14:01:20;3.10;;;1.10;;
19205;SDS011;59358;52.134;5.596;2023-06-26T14:03:47;2.20;;;1.25;;
19205;SDS011;59358;52.134;5.596;2023-06-26T14:06:14;3.63;;;1.10;;
19205;SDS011;59358;52.134;5.596;2023-06-26T14:08:42;3.45;;;1.27;;
19205;SDS011;59358;52.134;5.596;2023-06-26T14:11:09;2.13;;;1.20;;
19205;SDS011;59358;52.134;5.596;2023-06-26T14:13:36;2.75;;;1.30;;
19205;SDS011;59358;52.134;5.596;2023-06-26T14:16:03;2.55;;;1.27;;
19205;SDS011;59358;52.134;5.596;2023-06-26T14:18:30;3.47;;;1.20;;
19205;SDS011;59358;52.134;5.596;2023-06-26T14:20:58;3.78;;;1.80;;
19205;SDS011;59358;52.134;5.596;2023-06-26T14:23:24;1.98;;;1.42;;
19205;SDS011;59358;52.134;5.596;2023-06-26T14:25:53;4.60;;;1.33;;
19205;SDS011;59358;52.134;5.596;2023-06-26T14:28:19;3.92;;;1.40;;
19205;SDS011;59358;52.134;5.596;2023-06-26T14:30:48;3.80;;;1.38;;
19205;SDS011;59358;52.134;5.596;2023-06-26T14:33:15;3.97;;;1.20;;
19205;SDS011;59358;52.134;5.596;2023-06-26T14:35:42;1.85;;;1.30;;
19205;SDS011;59358;52.134;5.596;2023-06-26T14:38:09;4.07;;;1.50;;
19205;SDS011;59358;52.134;5.596;2023-06-26T14:40:35;6.10;;;1.23;;
19205;SDS011;59358;52.134;5.596;2023-06-26T14:43:04;5.35;;;1.30;;
19205;SDS011;59358;52.134;5.596;2023-06-26T14:45:30;3.40;;;1.20;;